sensor_id;sensor_type;location;lat;lon;timestamp;temperature;humidity
28460;DHT22;32528;45.712;9.192;2023-04-29T00:01:17;16.50;97.30
28460;DHT22;32528;45.712;9.192;2023-04-29T00:03:17;16.50;97.30
28460;DHT22;32528;45.712;9.192;2023-04-29T00:05:19;16.40;97.60
28460;DHT22;32528;45.712;9.192;2023-04-29T00:07:20;16.40;97.80
28460;DHT22;32528;45.712;9.192;2023-04-29T00:09:21;16.40;98.00
28460;DHT22;32528;45.712;9.192;2023-04-29T00:11:22;16.40;98.20
28460;DHT22;32528;45.712;9.192;2023-04-29T00:13:23;16.40;98.20
28460;DHT22;32528;45.712;9.192;2023-04-29T00:15:25;16.30;98.40
28460;DHT22;32528;45.712;9.192;2023-04-29T00:17:26;16.30;98.60
28460;DHT22;32528;45.712;9.192;2023-04-29T00:19:27;16.30;98.70
28460;DHT22;32528;45.712;9.192;2023-04-29T00:21:28;16.30;98.80
28460;DHT22;32528;45.712;9.192;2023-04-29T00:23:32;16.30;98.90
28460;DHT22;32528;45.712;9.192;2023-04-29T00:25:33;16.30;99.30
28460;DHT22;32528;45.712;9.192;2023-04-29T00:27:33;16.30;99.10
28460;DHT22;32528;45.712;9.192;2023-04-29T00:29:34;16.20;99.30
28460;DHT22;32528;45.712;9.192;2023-04-29T00:31:35;16.20;99.30
28460;DHT22;32528;45.712;9.192;2023-04-29T00:33:38;16.10;99.40
28460;DHT22;32528;45.712;9.192;2023-04-29T00:35:40;16.10;99.40
28460;DHT22;32528;45.712;9.192;2023-04-29T00:37:41;16.10;99.40
28460;DHT22;32528;45.712;9.192;2023-04-29T00:39:42;16.20;99.50
28460;DHT22;32528;45.712;9.192;2023-04-29T00:41:42;16.10;99.60
28460;DHT22;32528;45.712;9.192;2023-04-29T00:43:43;16.20;99.80
28460;DHT22;32528;45.712;9.192;2023-04-29T00:45:44;16.10;99.90
28460;DHT22;32528;45.712;9.192;2023-04-29T00:47:46;16.10;99.90
28460;DHT22;32528;45.712;9.192;2023-04-29T00:49:47;16.00;99.90
28460;DHT22;32528;45.712;9.192;2023-04-29T00:51:49;16.00;99.90
28460;DHT22;32528;45.712;9.192;2023-04-29T00:53:50;16.00;99.90
28460;DHT22;32528;45.712;9.192;2023-04-29T00:55:51;16.00;99.90
28460;DHT22;32528;45.712;9.192;2023-04-29T00:57:52;16.00;99.90
28460;DHT22;32528;45.712;9.192;2023-04-29T00:59:53;16.00;99.90
28460;DHT22;32528;45.712;9.192;2023-04-29T01:01:55;16.00;99.90
28460;DHT22;32528;45.712;9.192;2023-04-29T01:03:56;16.10;99.90
28460;DHT22;32528;45.712;9.192;2023-04-29T01:06:10;16.00;99.90
28460;DHT22;32528;45.712;9.192;2023-04-29T01:08:27;16.00;99.90
28460;DHT22;32528;45.712;9.192;2023-04-29T01:10:40;16.00;99.90
28460;DHT22;32528;45.712;9.192;2023-04-29T01:12:52;16.00;99.90
28460;DHT22;32528;45.712;9.192;2023-04-29T01:17:10;16.10;99.90
28460;DHT22;32528;45.712;9.192;2023-04-29T01:21:25;16.00;99.90
28460;DHT22;32528;45.712;9.192;2023-04-29T01:23:29;16.00;99.90
28460;DHT22;32528;45.712;9.192;2023-04-29T01:25:30;16.00;99.90
28460;DHT22;32528;45.712;9.192;2023-04-29T01:33:02;15.90;99.90
28460;DHT22;32528;45.712;9.192;2023-04-29T01:35:24;15.90;99.90
28460;DHT22;32528;45.712;9.192;2023-04-29T01:37:34;15.90;99.90
28460;DHT22;32528;45.712;9.192;2023-04-29T01:42:28;16.00;99.90
28460;DHT22;32528;45.712;9.192;2023-04-29T01:44:32;16.00;99.90
28460;DHT22;32528;45.712;9.192;2023-04-29T01:46:34;15.90;99.90
28460;DHT22;32528;45.712;9.192;2023-04-29T01:48:35;16.00;99.90
28460;DHT22;32528;45.712;9.192;2023-04-29T01:50:36;15.90;99.90
28460;DHT22;32528;45.712;9.192;2023-04-29T01:52:45;15.80;99.90
28460;DHT22;32528;45.712;9.192;2023-04-29T01:54:46;15.80;99.90
28460;DHT22;32528;45.712;9.192;2023-04-29T01:56:47;15.80;99.90
28460;DHT22;32528;45.712;9.192;2023-04-29T01:58:58;15.80;99.90
28460;DHT22;32528;45.712;9.192;2023-04-29T02:01:21;15.80;99.90
28460;DHT22;32528;45.712;9.192;2023-04-29T02:03:22;15.70;99.90
28460;DHT22;32528;45.712;9.192;2023-04-29T02:05:28;15.70;99.90
28460;DHT22;32528;45.712;9.192;2023-04-29T02:07:32;15.60;99.90
28460;DHT22;32528;45.712;9.192;2023-04-29T02:09:33;15.60;99.90
28460;DHT22;32528;45.712;9.192;2023-04-29T02:11:41;15.50;99.90
28460;DHT22;32528;45.712;9.192;2023-04-29T02:13:42;15.50;99.90
28460;DHT22;32528;45.712;9.192;2023-04-29T02:15:44;15.60;99.90
28460;DHT22;32528;45.712;9.192;2023-04-29T02:17:46;15.60;99.90
28460;DHT22;32528;45.712;9.192;2023-04-29T02:19:46;15.60;99.90
28460;DHT22;32528;45.712;9.192;2023-04-29T02:21:48;15.60;99.90
28460;DHT22;32528;45.712;9.192;2023-04-29T02:23:49;15.60;99.90
28460;DHT22;32528;45.712;9.192;2023-04-29T02:25:51;15.60;99.90
28460;DHT22;32528;45.712;9.192;2023-04-29T02:27:51;15.50;99.90
28460;DHT22;32528;45.712;9.192;2023-04-29T02:29:53;15.50;99.90
28460;DHT22;32528;45.712;9.192;2023-04-29T02:31:54;15.40;99.90
28460;DHT22;32528;45.712;9.192;2023-04-29T02:33:55;15.40;99.90
28460;DHT22;32528;45.712;9.192;2023-04-29T02:35:56;15.40;99.90
28460;DHT22;32528;45.712;9.192;2023-04-29T02:37:56;15.40;99.90
28460;DHT22;32528;45.712;9.192;2023-04-29T02:39:57;15.40;99.90
28460;DHT22;32528;45.712;9.192;2023-04-29T02:41:58;15.40;99.90
28460;DHT22;32528;45.712;9.192;2023-04-29T02:43:59;15.40;99.90
28460;DHT22;32528;45.712;9.192;2023-04-29T02:46:00;15.50;99.90
28460;DHT22;32528;45.712;9.192;2023-04-29T02:48:01;15.50;99.90
28460;DHT22;32528;45.712;9.192;2023-04-29T02:50:03;15.50;99.90
28460;DHT22;32528;45.712;9.192;2023-04-29T02:52:05;15.50;99.90
28460;DHT22;32528;45.712;9.192;2023-04-29T02:54:08;15.50;99.90
28460;DHT22;32528;45.712;9.192;2023-04-29T02:56:08;15.50;99.90
28460;DHT22;32528;45.712;9.192;2023-04-29T02:58:09;15.50;99.90
28460;DHT22;32528;45.712;9.192;2023-04-29T03:00:10;15.50;99.90
28460;DHT22;32528;45.712;9.192;2023-04-29T03:02:11;15.50;99.90
28460;DHT22;32528;45.712;9.192;2023-04-29T03:04:12;15.50;99.90
28460;DHT22;32528;45.712;9.192;2023-04-29T03:06:13;15.50;99.90
28460;DHT22;32528;45.712;9.192;2023-04-29T03:08:15;15.50;99.90
28460;DHT22;32528;45.712;9.192;2023-04-29T03:10:16;15.50;99.90
28460;DHT22;32528;45.712;9.192;2023-04-29T03:12:18;15.50;99.90
28460;DHT22;32528;45.712;9.192;2023-04-29T03:14:20;15.40;99.90
28460;DHT22;32528;45.712;9.192;2023-04-29T03:16:22;15.40;99.90
28460;DHT22;32528;45.712;9.192;2023-04-29T03:18:23;15.40;99.90
28460;DHT22;32528;45.712;9.192;2023-04-29T03:20:24;15.40;99.90
28460;DHT22;32528;45.712;9.192;2023-04-29T03:22:25;15.40;99.90
28460;DHT22;32528;45.712;9.192;2023-04-29T03:24:26;15.40;99.90
28460;DHT22;32528;45.712;9.192;2023-04-29T03:26:26;15.40;99.90
28460;DHT22;32528;45.712;9.192;2023-04-29T03:28:27;15.30;99.90
28460;DHT22;32528;45.712;9.192;2023-04-29T03:30:28;15.30;99.90
28460;DHT22;32528;45.712;9.192;2023-04-29T03:32:31;15.30;99.90
28460;DHT22;32528;45.712;9.192;2023-04-29T03:34:32;15.40;99.90
28460;DHT22;32528;45.712;9.192;2023-04-29T03:36:49;15.40;99.90
28460;DHT22;32528;45.712;9.192;2023-04-29T03:38:50;15.40;99.90
28460;DHT22;32528;45.712;9.192;2023-04-29T03:40:51;15.40;99.90
28460;DHT22;32528;45.712;9.192;2023-04-29T03:42:54;15.40;99.90
28460;DHT22;32528;45.712;9.192;2023-04-29T03:44:54;15.40;99.90
28460;DHT22;32528;45.712;9.192;2023-04-29T03:46:55;15.40;99.90
28460;DHT22;32528;45.712;9.192;2023-04-29T03:48:57;15.30;99.90
28460;DHT22;32528;45.712;9.192;2023-04-29T03:50:58;15.30;99.90
28460;DHT22;32528;45.712;9.192;2023-04-29T03:52:59;15.30;99.90
28460;DHT22;32528;45.712;9.192;2023-04-29T03:55:01;15.20;99.90
28460;DHT22;32528;45.712;9.192;2023-04-29T03:57:02;15.20;99.90
28460;DHT22;32528;45.712;9.192;2023-04-29T03:59:04;15.20;99.90
28460;DHT22;32528;45.712;9.192;2023-04-29T04:01:05;15.30;99.90
28460;DHT22;32528;45.712;9.192;2023-04-29T04:03:13;15.20;99.90
28460;DHT22;32528;45.712;9.192;2023-04-29T04:05:14;15.20;99.90
28460;DHT22;32528;45.712;9.192;2023-04-29T04:07:22;15.20;99.90
28460;DHT22;32528;45.712;9.192;2023-04-29T04:09:42;15.20;99.90
28460;DHT22;32528;45.712;9.192;2023-04-29T04:11:44;15.10;99.90
28460;DHT22;32528;45.712;9.192;2023-04-29T04:13:46;15.10;99.90
28460;DHT22;32528;45.712;9.192;2023-04-29T04:15:50;15.10;99.90
28460;DHT22;32528;45.712;9.192;2023-04-29T04:17:51;15.10;99.90
28460;DHT22;32528;45.712;9.192;2023-04-29T04:19:53;15.10;99.90
28460;DHT22;32528;45.712;9.192;2023-04-29T04:21:54;15.20;99.90
28460;DHT22;32528;45.712;9.192;2023-04-29T04:23:55;15.20;99.90
28460;DHT22;32528;45.712;9.192;2023-04-29T04:25:57;15.20;99.90
28460;DHT22;32528;45.712;9.192;2023-04-29T04:28:18;15.20;99.90
28460;DHT22;32528;45.712;9.192;2023-04-29T04:30:30;15.20;99.90
28460;DHT22;32528;45.712;9.192;2023-04-29T04:32:31;15.20;99.90
28460;DHT22;32528;45.712;9.192;2023-04-29T04:34:32;15.20;99.90
28460;DHT22;32528;45.712;9.192;2023-04-29T04:36:35;15.20;99.90
28460;DHT22;32528;45.712;9.192;2023-04-29T04:38:36;15.20;99.90
28460;DHT22;32528;45.712;9.192;2023-04-29T04:40:41;15.20;99.90
28460;DHT22;32528;45.712;9.192;2023-04-29T04:43:02;15.20;99.90
28460;DHT22;32528;45.712;9.192;2023-04-29T04:45:04;15.30;99.90
28460;DHT22;32528;45.712;9.192;2023-04-29T04:47:16;15.30;99.90
28460;DHT22;32528;45.712;9.192;2023-04-29T04:49:24;15.30;99.90
28460;DHT22;32528;45.712;9.192;2023-04-29T04:51:26;15.40;99.90
28460;DHT22;32528;45.712;9.192;2023-04-29T04:53:28;15.40;99.90
28460;DHT22;32528;45.712;9.192;2023-04-29T04:55:33;15.40;99.90
28460;DHT22;32528;45.712;9.192;2023-04-29T04:57:34;15.40;99.90
28460;DHT22;32528;45.712;9.192;2023-04-29T04:59:35;15.50;99.90
28460;DHT22;32528;45.712;9.192;2023-04-29T05:01:39;15.50;99.90
28460;DHT22;32528;45.712;9.192;2023-04-29T05:03:41;15.50;99.90
28460;DHT22;32528;45.712;9.192;2023-04-29T05:05:43;15.60;99.90
28460;DHT22;32528;45.712;9.192;2023-04-29T05:07:43;15.60;99.90
28460;DHT22;32528;45.712;9.192;2023-04-29T05:09:47;15.70;99.90
28460;DHT22;32528;45.712;9.192;2023-04-29T05:11:48;15.70;99.90
28460;DHT22;32528;45.712;9.192;2023-04-29T05:13:51;15.70;99.90
28460;DHT22;32528;45.712;9.192;2023-04-29T05:15:53;15.80;99.90
28460;DHT22;32528;45.712;9.192;2023-04-29T05:18:01;15.80;99.90
28460;DHT22;32528;45.712;9.192;2023-04-29T05:20:02;15.90;99.90
28460;DHT22;32528;45.712;9.192;2023-04-29T05:22:04;16.00;99.90
28460;DHT22;32528;45.712;9.192;2023-04-29T05:24:05;16.00;99.90
28460;DHT22;32528;45.712;9.192;2023-04-29T05:26:06;16.10;99.90
28460;DHT22;32528;45.712;9.192;2023-04-29T05:28:07;16.20;99.90
28460;DHT22;32528;45.712;9.192;2023-04-29T05:30:11;16.20;99.90
28460;DHT22;32528;45.712;9.192;2023-04-29T05:32:12;16.30;99.90
28460;DHT22;32528;45.712;9.192;2023-04-29T05:34:14;16.30;99.90
28460;DHT22;32528;45.712;9.192;2023-04-29T05:36:15;16.40;99.90
28460;DHT22;32528;45.712;9.192;2023-04-29T05:38:16;16.40;99.90
28460;DHT22;32528;45.712;9.192;2023-04-29T05:40:31;16.50;99.90
28460;DHT22;32528;45.712;9.192;2023-04-29T05:42:52;16.50;99.90
28460;DHT22;32528;45.712;9.192;2023-04-29T05:44:53;16.60;99.90
28460;DHT22;32528;45.712;9.192;2023-04-29T05:46:55;16.60;99.90
28460;DHT22;32528;45.712;9.192;2023-04-29T05:48:56;16.60;99.90
28460;DHT22;32528;45.712;9.192;2023-04-29T05:50:57;16.70;99.90
28460;DHT22;32528;45.712;9.192;2023-04-29T05:52:58;16.70;99.90
28460;DHT22;32528;45.712;9.192;2023-04-29T05:54:59;16.70;99.90
28460;DHT22;32528;45.712;9.192;2023-04-29T05:57:01;16.70;99.90
28460;DHT22;32528;45.712;9.192;2023-04-29T05:59:02;16.60;99.90
28460;DHT22;32528;45.712;9.192;2023-04-29T06:01:03;16.60;99.90
28460;DHT22;32528;45.712;9.192;2023-04-29T06:03:05;16.60;99.90
28460;DHT22;32528;45.712;9.192;2023-04-29T06:05:06;16.60;99.90
28460;DHT22;32528;45.712;9.192;2023-04-29T06:07:33;16.60;99.90
28460;DHT22;32528;45.712;9.192;2023-04-29T06:09:38;16.60;99.90
28460;DHT22;32528;45.712;9.192;2023-04-29T06:11:38;16.60;99.90
28460;DHT22;32528;45.712;9.192;2023-04-29T06:13:39;16.70;99.90
28460;DHT22;32528;45.712;9.192;2023-04-29T06:15:40;16.70;99.90
28460;DHT22;32528;45.712;9.192;2023-04-29T06:17:41;16.80;99.90
28460;DHT22;32528;45.712;9.192;2023-04-29T06:19:41;16.80;99.90
28460;DHT22;32528;45.712;9.192;2023-04-29T06:21:43;16.80;99.90
28460;DHT22;32528;45.712;9.192;2023-04-29T06:23:44;16.70;99.90
28460;DHT22;32528;45.712;9.192;2023-04-29T06:25:50;16.70;99.90
28460;DHT22;32528;45.712;9.192;2023-04-29T06:27:51;16.70;99.90
28460;DHT22;32528;45.712;9.192;2023-04-29T06:29:55;16.70;99.90
28460;DHT22;32528;45.712;9.192;2023-04-29T06:31:56;16.80;99.90
28460;DHT22;32528;45.712;9.192;2023-04-29T06:33:57;16.90;99.90
28460;DHT22;32528;45.712;9.192;2023-04-29T06:35:58;17.00;99.90
28460;DHT22;32528;45.712;9.192;2023-04-29T06:38:17;17.10;99.90
28460;DHT22;32528;45.712;9.192;2023-04-29T06:40:44;17.20;99.90
28460;DHT22;32528;45.712;9.192;2023-04-29T06:43:17;17.30;99.90
28460;DHT22;32528;45.712;9.192;2023-04-29T06:45:38;17.30;99.90
28460;DHT22;32528;45.712;9.192;2023-04-29T06:47:51;17.30;99.90
28460;DHT22;32528;45.712;9.192;2023-04-29T06:50:04;17.40;99.90
28460;DHT22;32528;45.712;9.192;2023-04-29T06:52:05;17.40;99.90
28460;DHT22;32528;45.712;9.192;2023-04-29T06:54:06;17.40;99.90
28460;DHT22;32528;45.712;9.192;2023-04-29T06:56:07;17.50;99.90
28460;DHT22;32528;45.712;9.192;2023-04-29T06:58:08;17.50;99.90
28460;DHT22;32528;45.712;9.192;2023-04-29T07:00:09;17.50;99.90
28460;DHT22;32528;45.712;9.192;2023-04-29T07:02:10;17.50;99.90
28460;DHT22;32528;45.712;9.192;2023-04-29T07:04:10;17.60;99.90
28460;DHT22;32528;45.712;9.192;2023-04-29T07:06:13;17.60;99.90
28460;DHT22;32528;45.712;9.192;2023-04-29T07:08:13;17.50;99.90
28460;DHT22;32528;45.712;9.192;2023-04-29T07:10:14;17.60;99.90
28460;DHT22;32528;45.712;9.192;2023-04-29T07:12:15;17.60;99.90
28460;DHT22;32528;45.712;9.192;2023-04-29T07:14:16;17.60;99.90
28460;DHT22;32528;45.712;9.192;2023-04-29T07:16:17;17.60;99.90
28460;DHT22;32528;45.712;9.192;2023-04-29T07:18:19;17.60;99.90
28460;DHT22;32528;45.712;9.192;2023-04-29T07:20:20;17.60;99.90
28460;DHT22;32528;45.712;9.192;2023-04-29T07:22:21;17.70;99.90
28460;DHT22;32528;45.712;9.192;2023-04-29T07:24:22;17.70;99.90
28460;DHT22;32528;45.712;9.192;2023-04-29T07:26:23;17.80;99.90
28460;DHT22;32528;45.712;9.192;2023-04-29T07:28:24;17.90;99.90
28460;DHT22;32528;45.712;9.192;2023-04-29T07:30:26;17.90;99.90
28460;DHT22;32528;45.712;9.192;2023-04-29T07:32:28;18.00;99.90
28460;DHT22;32528;45.712;9.192;2023-04-29T07:34:31;18.10;99.90
28460;DHT22;32528;45.712;9.192;2023-04-29T07:36:31;18.10;99.90
28460;DHT22;32528;45.712;9.192;2023-04-29T07:38:32;18.20;99.90
28460;DHT22;32528;45.712;9.192;2023-04-29T07:40:34;18.20;99.90
28460;DHT22;32528;45.712;9.192;2023-04-29T07:42:37;18.20;99.90
28460;DHT22;32528;45.712;9.192;2023-04-29T07:44:40;18.30;99.90
28460;DHT22;32528;45.712;9.192;2023-04-29T07:46:42;18.50;99.90
28460;DHT22;32528;45.712;9.192;2023-04-29T07:48:42;18.60;99.90
28460;DHT22;32528;45.712;9.192;2023-04-29T07:50:45;18.80;99.90
28460;DHT22;32528;45.712;9.192;2023-04-29T07:52:46;18.80;99.90
28460;DHT22;32528;45.712;9.192;2023-04-29T07:54:50;19.00;99.90
28460;DHT22;32528;45.712;9.192;2023-04-29T07:56:51;19.20;99.90
28460;DHT22;32528;45.712;9.192;2023-04-29T07:58:53;19.30;98.30
28460;DHT22;32528;45.712;9.192;2023-04-29T08:00:55;19.30;98.30
28460;DHT22;32528;45.712;9.192;2023-04-29T08:02:56;19.50;97.90
28460;DHT22;32528;45.712;9.192;2023-04-29T08:04:57;19.50;97.80
28460;DHT22;32528;45.712;9.192;2023-04-29T08:06:58;19.60;97.40
28460;DHT22;32528;45.712;9.192;2023-04-29T08:08:59;19.70;97.10
28460;DHT22;32528;45.712;9.192;2023-04-29T08:11:00;19.50;96.50
28460;DHT22;32528;45.712;9.192;2023-04-29T08:13:02;19.50;96.00
28460;DHT22;32528;45.712;9.192;2023-04-29T08:15:04;19.20;95.90
28460;DHT22;32528;45.712;9.192;2023-04-29T08:17:05;19.20;96.50
28460;DHT22;32528;45.712;9.192;2023-04-29T08:19:07;19.00;96.60
28460;DHT22;32528;45.712;9.192;2023-04-29T08:21:08;19.00;96.60
28460;DHT22;32528;45.712;9.192;2023-04-29T08:23:10;19.20;96.50
28460;DHT22;32528;45.712;9.192;2023-04-29T08:25:11;19.20;96.50
28460;DHT22;32528;45.712;9.192;2023-04-29T08:27:12;19.30;96.50
28460;DHT22;32528;45.712;9.192;2023-04-29T08:29:14;19.30;96.40
28460;DHT22;32528;45.712;9.192;2023-04-29T08:31:20;19.40;96.20
28460;DHT22;32528;45.712;9.192;2023-04-29T08:33:21;19.50;96.30
28460;DHT22;32528;45.712;9.192;2023-04-29T08:35:22;19.60;96.00
28460;DHT22;32528;45.712;9.192;2023-04-29T08:37:22;19.70;96.00
28460;DHT22;32528;45.712;9.192;2023-04-29T08:39:23;19.40;95.90
28460;DHT22;32528;45.712;9.192;2023-04-29T08:41:25;19.40;96.10
28460;DHT22;32528;45.712;9.192;2023-04-29T08:43:26;19.40;95.90
28460;DHT22;32528;45.712;9.192;2023-04-29T08:45:27;19.50;95.70
28460;DHT22;32528;45.712;9.192;2023-04-29T08:47:29;19.60;95.90
28460;DHT22;32528;45.712;9.192;2023-04-29T08:49:31;19.70;95.60
28460;DHT22;32528;45.712;9.192;2023-04-29T08:51:34;19.80;95.60
28460;DHT22;32528;45.712;9.192;2023-04-29T08:53:35;20.00;95.50
28460;DHT22;32528;45.712;9.192;2023-04-29T08:55:40;20.40;95.00
28460;DHT22;32528;45.712;9.192;2023-04-29T08:57:42;20.70;94.50
28460;DHT22;32528;45.712;9.192;2023-04-29T08:59:43;20.90;94.20
28460;DHT22;32528;45.712;9.192;2023-04-29T09:01:45;21.10;94.20
28460;DHT22;32528;45.712;9.192;2023-04-29T09:04:08;21.50;93.50
28460;DHT22;32528;45.712;9.192;2023-04-29T09:06:10;21.40;92.20
28460;DHT22;32528;45.712;9.192;2023-04-29T09:08:12;21.60;92.50
28460;DHT22;32528;45.712;9.192;2023-04-29T09:10:13;21.70;92.30
28460;DHT22;32528;45.712;9.192;2023-04-29T09:12:15;21.90;92.20
28460;DHT22;32528;45.712;9.192;2023-04-29T09:14:16;22.00;92.20
28460;DHT22;32528;45.712;9.192;2023-04-29T09:16:17;21.90;92.20
28460;DHT22;32528;45.712;9.192;2023-04-29T09:20:41;21.90;91.30
28460;DHT22;32528;45.712;9.192;2023-04-29T09:22:55;21.70;91.10
28460;DHT22;32528;45.712;9.192;2023-04-29T09:25:11;21.70;91.80
28460;DHT22;32528;45.712;9.192;2023-04-29T09:27:25;21.90;91.20
28460;DHT22;32528;45.712;9.192;2023-04-29T09:29:27;21.70;91.30
28460;DHT22;32528;45.712;9.192;2023-04-29T09:31:28;21.60;91.20
28460;DHT22;32528;45.712;9.192;2023-04-29T09:33:29;21.70;91.50
28460;DHT22;32528;45.712;9.192;2023-04-29T09:35:30;21.70;91.40
28460;DHT22;32528;45.712;9.192;2023-04-29T09:37:31;21.50;91.40
28460;DHT22;32528;45.712;9.192;2023-04-29T09:39:38;21.50;91.60
28460;DHT22;32528;45.712;9.192;2023-04-29T09:44:05;21.70;91.40
28460;DHT22;32528;45.712;9.192;2023-04-29T09:46:11;21.70;91.40
28460;DHT22;32528;45.712;9.192;2023-04-29T09:48:13;21.70;91.20
28460;DHT22;32528;45.712;9.192;2023-04-29T09:50:14;21.60;91.30
28460;DHT22;32528;45.712;9.192;2023-04-29T09:52:15;21.40;91.50
28460;DHT22;32528;45.712;9.192;2023-04-29T09:54:21;21.20;91.50
28460;DHT22;32528;45.712;9.192;2023-04-29T09:56:22;21.00;91.60
28460;DHT22;32528;45.712;9.192;2023-04-29T09:58:33;21.20;91.60
28460;DHT22;32528;45.712;9.192;2023-04-29T10:00:38;21.60;91.50
28460;DHT22;32528;45.712;9.192;2023-04-29T10:02:41;22.00;90.80
28460;DHT22;32528;45.712;9.192;2023-04-29T10:04:47;22.00;90.30
28460;DHT22;32528;45.712;9.192;2023-04-29T10:06:54;21.90;90.10
28460;DHT22;32528;45.712;9.192;2023-04-29T10:08:55;21.90;90.20
28460;DHT22;32528;45.712;9.192;2023-04-29T10:11:01;21.70;90.40
28460;DHT22;32528;45.712;9.192;2023-04-29T10:13:02;21.70;90.50
28460;DHT22;32528;45.712;9.192;2023-04-29T10:17:31;21.90;90.60
28460;DHT22;32528;45.712;9.192;2023-04-29T10:21:42;22.40;89.00
28460;DHT22;32528;45.712;9.192;2023-04-29T10:23:43;22.70;88.00
28460;DHT22;32528;45.712;9.192;2023-04-29T10:25:45;22.50;88.40
28460;DHT22;32528;45.712;9.192;2023-04-29T10:27:48;22.20;89.60
28460;DHT22;32528;45.712;9.192;2023-04-29T10:29:50;22.10;89.40
28460;DHT22;32528;45.712;9.192;2023-04-29T10:31:53;22.30;88.80
28460;DHT22;32528;45.712;9.192;2023-04-29T10:33:56;22.70;86.70
28460;DHT22;32528;45.712;9.192;2023-04-29T10:35:57;23.20;86.80
28460;DHT22;32528;45.712;9.192;2023-04-29T10:38:00;23.30;84.50
28460;DHT22;32528;45.712;9.192;2023-04-29T10:40:21;23.20;83.30
28460;DHT22;32528;45.712;9.192;2023-04-29T10:42:36;23.30;82.70
28460;DHT22;32528;45.712;9.192;2023-04-29T10:47:18;22.30;83.30
28460;DHT22;32528;45.712;9.192;2023-04-29T10:49:20;22.60;85.10
28460;DHT22;32528;45.712;9.192;2023-04-29T10:53:32;23.10;84.50
28460;DHT22;32528;45.712;9.192;2023-04-29T10:55:36;23.30;83.90
28460;DHT22;32528;45.712;9.192;2023-04-29T10:57:37;23.30;83.10
28460;DHT22;32528;45.712;9.192;2023-04-29T11:06:07;23.90;77.70
28460;DHT22;32528;45.712;9.192;2023-04-29T11:10:12;23.80;78.60
28460;DHT22;32528;45.712;9.192;2023-04-29T11:12:19;24.20;78.20
28460;DHT22;32528;45.712;9.192;2023-04-29T11:14:23;24.40;78.50
28460;DHT22;32528;45.712;9.192;2023-04-29T11:16:25;24.30;78.30
28460;DHT22;32528;45.712;9.192;2023-04-29T11:18:29;24.50;77.40
28460;DHT22;32528;45.712;9.192;2023-04-29T11:20:29;24.40;77.50
28460;DHT22;32528;45.712;9.192;2023-04-29T11:22:31;24.60;78.10
28460;DHT22;32528;45.712;9.192;2023-04-29T11:24:34;24.70;77.50
28460;DHT22;32528;45.712;9.192;2023-04-29T11:26:35;24.80;76.70
28460;DHT22;32528;45.712;9.192;2023-04-29T11:28:37;25.00;75.80
28460;DHT22;32528;45.712;9.192;2023-04-29T11:30:39;24.80;76.10
28460;DHT22;32528;45.712;9.192;2023-04-29T11:32:40;24.80;76.40
28460;DHT22;32528;45.712;9.192;2023-04-29T11:34:42;24.70;76.20
28460;DHT22;32528;45.712;9.192;2023-04-29T11:36:43;24.70;77.10
28460;DHT22;32528;45.712;9.192;2023-04-29T11:38:43;25.00;75.70
28460;DHT22;32528;45.712;9.192;2023-04-29T11:40:50;25.00;75.70
28460;DHT22;32528;45.712;9.192;2023-04-29T11:42:51;24.80;75.40
28460;DHT22;32528;45.712;9.192;2023-04-29T11:44:53;24.80;76.10
28460;DHT22;32528;45.712;9.192;2023-04-29T11:47:03;25.00;76.60
28460;DHT22;32528;45.712;9.192;2023-04-29T11:49:04;25.00;75.80
28460;DHT22;32528;45.712;9.192;2023-04-29T11:51:05;25.10;76.10
28460;DHT22;32528;45.712;9.192;2023-04-29T11:53:07;25.10;76.20
28460;DHT22;32528;45.712;9.192;2023-04-29T11:55:08;25.00;75.70
28460;DHT22;32528;45.712;9.192;2023-04-29T11:57:09;25.00;76.00
28460;DHT22;32528;45.712;9.192;2023-04-29T11:59:10;25.10;75.60
28460;DHT22;32528;45.712;9.192;2023-04-29T12:01:11;25.00;75.50
28460;DHT22;32528;45.712;9.192;2023-04-29T12:03:18;24.90;75.00
28460;DHT22;32528;45.712;9.192;2023-04-29T12:05:24;24.60;75.90
28460;DHT22;32528;45.712;9.192;2023-04-29T12:07:25;24.20;77.40
28460;DHT22;32528;45.712;9.192;2023-04-29T12:09:26;24.20;77.60
28460;DHT22;32528;45.712;9.192;2023-04-29T12:11:27;24.20;77.80
28460;DHT22;32528;45.712;9.192;2023-04-29T12:13:29;24.20;77.80
28460;DHT22;32528;45.712;9.192;2023-04-29T12:15:30;24.20;78.40
28460;DHT22;32528;45.712;9.192;2023-04-29T12:17:32;24.60;77.70
28460;DHT22;32528;45.712;9.192;2023-04-29T12:19:33;24.70;77.20
28460;DHT22;32528;45.712;9.192;2023-04-29T12:21:35;24.70;77.20
28460;DHT22;32528;45.712;9.192;2023-04-29T12:23:36;24.80;76.80
28460;DHT22;32528;45.712;9.192;2023-04-29T12:25:38;24.70;76.60
28460;DHT22;32528;45.712;9.192;2023-04-29T12:27:41;25.00;76.40
28460;DHT22;32528;45.712;9.192;2023-04-29T12:29:45;25.00;76.20
28460;DHT22;32528;45.712;9.192;2023-04-29T12:31:46;24.80;76.30
28460;DHT22;32528;45.712;9.192;2023-04-29T12:33:47;24.80;76.30
28460;DHT22;32528;45.712;9.192;2023-04-29T12:35:49;24.90;76.40
28460;DHT22;32528;45.712;9.192;2023-04-29T12:37:50;25.10;75.70
28460;DHT22;32528;45.712;9.192;2023-04-29T12:39:53;25.20;75.40
28460;DHT22;32528;45.712;9.192;2023-04-29T12:41:57;25.10;75.40
28460;DHT22;32528;45.712;9.192;2023-04-29T12:43:58;25.40;74.90
28460;DHT22;32528;45.712;9.192;2023-04-29T12:46:06;25.40;75.20
28460;DHT22;32528;45.712;9.192;2023-04-29T12:48:07;25.50;74.10
28460;DHT22;32528;45.712;9.192;2023-04-29T12:50:09;25.30;74.60
28460;DHT22;32528;45.712;9.192;2023-04-29T12:52:10;25.40;73.50
28460;DHT22;32528;45.712;9.192;2023-04-29T12:54:13;25.20;73.40
28460;DHT22;32528;45.712;9.192;2023-04-29T12:56:15;25.10;74.10
28460;DHT22;32528;45.712;9.192;2023-04-29T12:58:17;25.00;74.50
28460;DHT22;32528;45.712;9.192;2023-04-29T13:00:18;24.70;75.60
28460;DHT22;32528;45.712;9.192;2023-04-29T13:02:20;24.70;75.50
28460;DHT22;32528;45.712;9.192;2023-04-29T13:04:21;24.80;75.60
28460;DHT22;32528;45.712;9.192;2023-04-29T13:06:22;24.90;75.10
28460;DHT22;32528;45.712;9.192;2023-04-29T13:08:24;25.10;75.40
28460;DHT22;32528;45.712;9.192;2023-04-29T13:10:26;25.20;74.90
28460;DHT22;32528;45.712;9.192;2023-04-29T13:12:28;25.10;74.30
28460;DHT22;32528;45.712;9.192;2023-04-29T13:14:29;25.00;74.40
28460;DHT22;32528;45.712;9.192;2023-04-29T13:16:30;24.80;74.30
28460;DHT22;32528;45.712;9.192;2023-04-29T13:18:31;24.30;75.50
28460;DHT22;32528;45.712;9.192;2023-04-29T13:20:32;24.40;76.30
28460;DHT22;32528;45.712;9.192;2023-04-29T13:22:33;24.50;76.40
28460;DHT22;32528;45.712;9.192;2023-04-29T13:24:34;24.80;75.30
28460;DHT22;32528;45.712;9.192;2023-04-29T13:26:36;24.90;75.20
28460;DHT22;32528;45.712;9.192;2023-04-29T13:28:37;25.00;74.50
28460;DHT22;32528;45.712;9.192;2023-04-29T13:30:38;24.80;74.30
28460;DHT22;32528;45.712;9.192;2023-04-29T13:32:39;24.80;75.20